Time;durP1;ratioP1;P1;durP2;ratioP2;P2;SDS_P1;SDS_P2;PMS_P1;PMS_P2;Temp;Humidity;BMP_temperature;BMP_pressure;BME280_temperature;BME280_humidity;BME280_pressure;Samples;Min_cycle;Max_cycle;Signal;HPM_P1;HPM_P2
2021/09/29 00:02:16;;;;;;;8.53;7.73;;;14.80;99.90;;;;;;5013848;28;20183;-66
2021/09/29 00:04:42;;;;;;;10.43;8.80;;;14.60;99.90;;;;;;5014360;28;20191;-66
2021/09/29 00:07:08;;;;;;;9.27;8.37;;;14.60;99.90;;;;;;5013809;28;20190;-66
2021/09/29 00:09:33;;;;;;;9.30;8.03;;;14.50;99.90;;;;;;5013734;28;20175;-66
2021/09/29 00:11:59;;;;;;;8.23;7.63;;;14.50;99.90;;;;;;5014037;28;20445;-67
2021/09/29 00:14:25;;;;;;;18.23;8.70;;;14.40;99.90;;;;;;5013429;28;20194;-66
2021/09/29 00:16:51;;;;;;;9.37;7.43;;;14.40;99.90;;;;;;5013897;28;20171;-66
2021/09/29 00:19:16;;;;;;;9.33;8.53;;;14.40;99.90;;;;;;5013370;28;20465;-66
2021/09/29 00:21:42;;;;;;;8.60;7.90;;;14.40;99.90;;;;;;5013518;28;20178;-66
2021/09/29 00:24:08;;;;;;;9.80;8.80;;;14.40;99.90;;;;;;5013430;28;20707;-66
2021/09/29 00:26:33;;;;;;;8.90;7.97;;;14.50;99.90;;;;;;5013387;28;20317;-66
2021/09/29 00:28:59;;;;;;;9.43;8.40;;;14.60;99.90;;;;;;5013543;28;20172;-66
2021/09/29 00:34:01;;;;;;;10.40;9.40;;;14.60;99.90;;;;;;5013432;28;20211;-66
2021/09/29 00:36:26;;;;;;;13.97;8.43;;;14.60;99.90;;;;;;5013292;28;20433;-66
2021/09/29 00:38:53;;;;;;;9.00;7.83;;;14.50;99.90;;;;;;5013024;28;20464;-66
2021/09/29 00:41:19;;;;;;;9.90;8.90;;;14.50;99.90;;;;;;5013278;28;20175;-66
2021/09/29 00:43:45;;;;;;;9.00;8.20;;;14.40;99.90;;;;;;5013294;28;20514;-66
2021/09/29 00:46:10;;;;;;;9.50;8.47;;;14.30;99.90;;;;;;5013114;28;20935;-66
2021/09/29 00:48:36;;;;;;;7.63;6.80;;;14.30;99.90;;;;;;5013111;28;20175;-67
2021/09/29 00:51:01;;;;;;;10.80;9.23;;;14.30;99.90;;;;;;5013112;28;20182;-67
2021/09/29 00:53:27;;;;;;;12.07;10.77;;;14.20;99.90;;;;;;5013374;28;20201;-66
2021/09/29 00:55:53;;;;;;;8.63;7.80;;;14.20;99.90;;;;;;5012879;28;20425;-66
2021/09/29 00:58:18;;;;;;;8.83;7.93;;;14.10;99.90;;;;;;5012637;28;20175;-66
2021/09/29 01:00:44;;;;;;;7.97;7.03;;;14.00;99.90;;;;;;5012843;28;20537;-66
2021/09/29 01:03:10;;;;;;;9.40;8.53;;;14.00;99.90;;;;;;5012971;28;20195;-66
2021/09/29 01:05:40;;;;;;;8.13;7.43;;;14.00;99.90;;;;;;5012881;28;20301;-66
2021/09/29 01:08:13;;;;;;;9.10;8.10;;;14.00;99.90;;;;;;5012355;28;20438;-66
2021/09/29 01:10:55;;;;;;;11.60;8.43;;;14.00;99.90;;;;;;5012856;28;21086;-66
2021/09/29 01:13:54;;;;;;;8.90;8.00;;;13.90;99.90;;;;;;5012428;28;20544;-66
2021/09/29 01:16:21;;;;;;;10.83;9.13;;;13.90;99.90;;;;;;5008449;28;20978;-66
2021/09/29 01:18:54;;;;;;;9.37;8.47;;;13.90;99.90;;;;;;5012280;28;20461;-66
2021/09/29 01:21:20;;;;;;;9.13;8.23;;;13.90;99.90;;;;;;5012605;28;20554;-66
2021/09/29 01:24:01;;;;;;;8.90;8.10;;;13.90;99.90;;;;;;5012669;28;20446;-66
2021/09/29 01:26:32;;;;;;;7.33;6.63;;;14.00;99.90;;;;;;5012575;28;20429;-66
2021/09/29 01:29:08;;;;;;;9.47;8.37;;;14.20;99.90;;;;;;5011971;28;20444;-66
2021/09/29 01:31:35;;;;;;;10.50;8.77;;;14.20;99.90;;;;;;5012455;28;20444;-66
2021/09/29 01:34:02;;;;;;;10.67;8.90;;;14.20;99.90;;;;;;5012463;28;20465;-66
2021/09/29 01:36:28;;;;;;;10.00;8.50;;;14.00;99.90;;;;;;5012488;28;20442;-66
2021/09/29 01:38:57;;;;;;;8.63;7.83;;;14.00;99.90;;;;;;5011673;28;20484;-66
2021/09/29 01:41:25;;;;;;;9.67;8.73;;;13.90;99.90;;;;;;5012433;28;20185;-66
2021/09/29 01:43:51;;;;;;;9.97;8.97;;;13.80;99.90;;;;;;5012303;28;20433;-66
2021/09/29 01:46:17;;;;;;;10.00;9.17;;;13.70;99.90;;;;;;5012096;28;20432;-66
2021/09/29 01:48:47;;;;;;;9.40;8.60;;;13.70;99.90;;;;;;5010655;28;20434;-66
2021/09/29 01:51:13;;;;;;;9.90;9.00;;;13.70;99.90;;;;;;5012244;28;20218;-66
2021/09/29 01:53:40;;;;;;;9.00;8.20;;;13.70;99.90;;;;;;5011543;28;20465;-66
2021/09/29 01:56:06;;;;;;;9.43;8.13;;;13.70;99.90;;;;;;5012187;28;20516;-66
2021/09/29 01:58:32;;;;;;;10.00;9.00;;;13.70;99.90;;;;;;5011577;28;20544;-66
2021/09/29 02:00:58;;;;;;;9.13;8.33;;;13.70;99.90;;;;;;5011914;28;20182;-66
2021/09/29 02:03:24;;;;;;;11.53;8.30;;;13.70;99.90;;;;;;5011922;28;20936;-66
2021/09/29 02:05:50;;;;;;;9.30;8.50;;;13.70;99.90;;;;;;5011736;28;20517;-66
2021/09/29 02:08:17;;;;;;;10.50;9.50;;;13.70;99.90;;;;;;5011754;28;20190;-66
2021/09/29 02:10:42;;;;;;;8.27;7.47;;;13.70;99.90;;;;;;5012100;28;20841;-66
2021/09/29 02:13:08;;;;;;;9.00;7.80;;;13.80;99.90;;;;;;5011753;28;20492;-66
2021/09/29 02:15:33;;;;;;;10.07;8.87;;;14.00;99.90;;;;;;5011892;28;20206;-66
2021/09/29 02:17:59;;;;;;;11.07;9.97;;;13.90;99.90;;;;;;5011392;28;20179;-66
2021/09/29 02:20:26;;;;;;;8.90;7.40;;;13.80;99.90;;;;;;5011874;28;20199;-67
2021/09/29 02:22:51;;;;;;;9.20;8.40;;;13.90;99.90;;;;;;5011879;28;20195;-67
2021/09/29 02:25:17;;;;;;;8.00;7.23;;;14.00;99.90;;;;;;5011904;28;20509;-66
2021/09/29 02:27:42;;;;;;;7.80;7.10;;;13.90;99.90;;;;;;5011433;28;20186;-66
2021/09/29 02:30:09;;;;;;;7.67;7.07;;;13.80;99.90;;;;;;5011861;28;20179;-66
2021/09/29 02:32:36;;;;;;;7.93;7.13;;;13.80;99.90;;;;;;5011591;28;20281;-66
2021/09/29 02:35:03;;;;;;;9.03;8.07;;;13.90;99.90;;;;;;5011756;28;20445;-66
2021/09/29 02:37:29;;;;;;;9.37;8.67;;;14.00;99.90;;;;;;5011288;28;20437;-66
2021/09/29 02:39:55;;;;;;;8.00;7.20;;;14.00;99.90;;;;;;5011776;28;20465;-66
2021/09/29 02:42:20;;;;;;;8.23;7.43;;;14.10;99.90;;;;;;5011632;28;20186;-66
2021/09/29 02:44:46;;;;;;;9.77;7.63;;;14.00;99.90;;;;;;5011857;28;20173;-66
2021/09/29 02:47:11;;;;;;;8.30;7.53;;;14.10;99.90;;;;;;5011452;28;20212;-66
2021/09/29 02:49:37;;;;;;;8.37;7.53;;;14.00;99.90;;;;;;5011380;28;20190;-66
2021/09/29 02:52:02;;;;;;;8.30;7.60;;;13.90;99.90;;;;;;5011871;28;20175;-66
2021/09/29 02:54:28;;;;;;;8.50;7.70;;;13.80;99.90;;;;;;5011810;28;20676;-66
2021/09/29 02:56:54;;;;;;;7.80;7.10;;;13.70;99.90;;;;;;5011281;28;20183;-66
2021/09/29 02:59:19;;;;;;;9.20;8.03;;;13.60;99.90;;;;;;5011075;28;20230;-66
2021/09/29 03:01:45;;;;;;;8.80;8.00;;;13.60;99.90;;;;;;5011500;28;20244;-66
2021/09/29 03:04:11;;;;;;;8.83;8.13;;;13.50;99.90;;;;;;5011267;28;20187;-66
2021/09/29 03:06:37;;;;;;;8.83;7.83;;;13.50;99.90;;;;;;5015202;28;20805;-66
2021/09/29 03:09:02;;;;;;;9.00;8.20;;;13.40;99.90;;;;;;5014878;28;20187;-66
2021/09/29 03:11:28;;;;;;;10.07;9.17;;;13.30;99.90;;;;;;5015107;28;20186;-66
2021/09/29 03:13:55;;;;;;;8.83;7.57;;;13.20;99.90;;;;;;5015011;28;20203;-66
2021/09/29 03:16:20;;;;;;;12.30;9.07;;;13.10;99.90;;;;;;5014911;28;20209;-66
2021/09/29 03:18:49;;;;;;;8.33;7.40;;;12.90;99.90;;;;;;5014456;28;20565;-66
2021/09/29 03:21:15;;;;;;;10.40;7.90;;;12.80;99.90;;;;;;5014808;28;20175;-66
2021/09/29 03:23:42;;;;;;;13.90;9.50;;;12.80;99.90;;;;;;5014844;28;20572;-66
2021/09/29 03:26:07;;;;;;;9.63;8.67;;;12.80;99.90;;;;;;5014759;28;20438;-66
2021/09/29 03:28:33;;;;;;;10.17;9.20;;;12.80;99.90;;;;;;5014514;28;20776;-66
2021/09/29 03:30:59;;;;;;;11.43;9.10;;;12.80;99.90;;;;;;5014451;28;20581;-66
2021/09/29 03:33:24;;;;;;;11.63;10.53;;;12.80;99.90;;;;;;5014421;28;20293;-66
2021/09/29 03:35:50;;;;;;;9.87;8.27;;;12.80;99.90;;;;;;5014467;28;20178;-66
2021/09/29 03:38:16;;;;;;;9.43;8.60;;;12.80;99.90;;;;;;5012940;28;20186;-66
2021/09/29 03:40:41;;;;;;;13.80;10.50;;;12.80;99.90;;;;;;5014529;28;20186;-66
2021/09/29 03:43:07;;;;;;;8.90;7.90;;;12.80;99.90;;;;;;5013232;28;20210;-66
2021/09/29 03:45:33;;;;;;;10.03;9.03;;;12.80;99.90;;;;;;5014238;28;20226;-66
2021/09/29 03:47:58;;;;;;;9.20;8.30;;;12.90;99.90;;;;;;5014350;28;20183;-66
2021/09/29 03:50:24;;;;;;;10.87;9.73;;;12.90;99.90;;;;;;5014439;28;20695;-66
2021/09/29 03:52:50;;;;;;;9.00;8.10;;;13.00;99.90;;;;;;5014376;28;20260;-66
2021/09/29 03:55:15;;;;;;;12.53;9.03;;;13.00;99.90;;;;;;5014218;28;20236;-66
2021/09/29 03:57:41;;;;;;;10.30;7.97;;;13.00;99.90;;;;;;5014052;28;20269;-66
2021/09/29 04:00:12;;;;;;;8.57;7.80;;;13.10;99.90;;;;;;5013926;28;20214;-66
2021/09/29 04:02:38;;;;;;;8.53;7.73;;;13.20;99.90;;;;;;5014074;28;20207;-66
2021/09/29 04:05:05;;;;;;;9.47;8.40;;;13.20;99.90;;;;;;5014124;28;20441;-66
2021/09/29 04:07:31;;;;;;;8.17;7.37;;;13.30;99.90;;;;;;5013795;28;20434;-66
2021/09/29 04:09:57;;;;;;;8.20;7.40;;;13.30;99.90;;;;;;5014117;28;20441;-66
2021/09/29 04:12:23;;;;;;;8.07;7.27;;;13.30;99.90;;;;;;5013847;28;20190;-66
2021/09/29 04:14:49;;;;;;;10.80;6.97;;;13.30;99.90;;;;;;5013893;28;20245;-66
2021/09/29 04:17:15;;;;;;;7.80;7.00;;;13.30;99.90;;;;;;5011883;28;20477;-66
2021/09/29 04:19:40;;;;;;;9.50;8.27;;;13.30;99.90;;;;;;5013853;28;21003;-66
2021/09/29 04:22:10;;;;;;;8.73;7.10;;;13.20;99.90;;;;;;5013895;28;20175;-66
2021/09/29 04:24:40;;;;;;;8.37;7.60;;;13.30;99.90;;;;;;5013758;28;21056;-66
2021/09/29 04:27:08;;;;;;;9.43;7.70;;;13.30;99.90;;;;;;5013850;28;20487;-66
2021/09/29 04:29:33;;;;;;;7.93;6.53;;;13.30;99.90;;;;;;5013625;28;20418;-66
2021/09/29 04:31:59;;;;;;;8.07;6.90;;;13.30;99.90;;;;;;5013718;28;20429;-66
2021/09/29 04:34:25;;;;;;;7.43;6.70;;;13.30;99.90;;;;;;5014095;28;20211;-66
2021/09/29 04:36:51;;;;;;;9.10;7.83;;;13.20;99.90;;;;;;4995776;28;20175;-66
2021/09/29 04:39:16;;;;;;;7.90;6.90;;;13.20;99.90;;;;;;4993741;28;20466;-66
2021/09/29 04:41:42;;;;;;;8.50;7.70;;;13.20;99.90;;;;;;4994071;28;20176;-66
2021/09/29 04:44:07;;;;;;;7.67;6.80;;;13.10;99.90;;;;;;4993870;28;20265;-67
2021/09/29 04:46:33;;;;;;;7.40;6.50;;;13.10;99.90;;;;;;4993939;28;20579;-66
2021/09/29 04:48:59;;;;;;;8.80;7.10;;;13.10;99.90;;;;;;4993596;28;20179;-67
2021/09/29 04:51:24;;;;;;;9.90;6.47;;;13.00;99.90;;;;;;4993726;28;20233;-66
2021/09/29 04:53:50;;;;;;;6.27;5.67;;;13.00;99.90;;;;;;4993751;28;20282;-67
2021/09/29 04:56:16;;;;;;;8.37;5.83;;;13.00;99.90;;;;;;4993868;28;20259;-67
2021/09/29 04:58:43;;;;;;;10.13;7.40;;;13.00;99.90;;;;;;4993345;28;20204;-66
2021/09/29 05:01:16;;;;;;;7.10;6.50;;;13.00;99.90;;;;;;4993603;28;20538;-67
2021/09/29 05:03:42;;;;;;;6.47;5.87;;;13.00;99.90;;;;;;4993593;28;20446;-66
2021/09/29 05:06:08;;;;;;;7.63;6.77;;;12.90;99.90;;;;;;4993461;28;20796;-66
2021/09/29 05:08:35;;;;;;;8.43;6.70;;;12.90;99.90;;;;;;4993269;28;20258;-66
2021/09/29 05:11:19;;;;;;;8.53;7.73;;;12.90;99.90;;;;;;4993516;28;20254;-66
2021/09/29 05:13:45;;;;;;;5.70;5.20;;;12.90;99.90;;;;;;4993292;28;20454;-66
2021/09/29 05:16:11;;;;;;;7.20;6.17;;;12.90;99.90;;;;;;4993329;28;20480;-67
2021/09/29 05:18:37;;;;;;;6.83;5.97;;;12.90;99.90;;;;;;5012314;28;20477;-66
2021/09/29 05:21:02;;;;;;;5.50;5.10;;;12.90;99.90;;;;;;5012970;28;20177;-67
2021/09/29 05:23:28;;;;;;;8.03;5.93;;;12.90;99.90;;;;;;5012703;28;20229;-67
2021/09/29 05:25:55;;;;;;;8.30;5.57;;;12.90;99.90;;;;;;5012816;28;20576;-66
2021/09/29 05:28:28;;;;;;;9.70;6.83;;;12.80;99.90;;;;;;5011673;28;20258;-66
2021/09/29 05:30:53;;;;;;;6.53;6.00;;;12.80;99.90;;;;;;5012779;28;20764;-66
2021/09/29 05:33:19;;;;;;;7.47;5.93;;;12.80;99.90;;;;;;5012286;28;20472;-66
2021/09/29 05:35:45;;;;;;;7.40;5.67;;;12.80;99.90;;;;;;5012674;28;20206;-66
2021/09/29 05:38:11;;;;;;;9.23;7.30;;;12.70;99.90;;;;;;5012330;28;20250;-66
2021/09/29 05:40:36;;;;;;;7.20;6.60;;;12.70;99.90;;;;;;5012645;28;20207;-66
2021/09/29 05:43:03;;;;;;;7.27;6.60;;;12.70;99.90;;;;;;5012457;28;20253;-66
2021/09/29 05:45:28;;;;;;;7.43;6.70;;;12.70;99.90;;;;;;5012502;28;20230;-66
2021/09/29 05:47:54;;;;;;;7.80;7.00;;;12.70;99.90;;;;;;5012267;28;20549;-67
2021/09/29 05:50:19;;;;;;;6.93;6.30;;;12.70;99.90;;;;;;5012142;28;20182;-67
2021/09/29 05:52:45;;;;;;;12.50;7.00;;;12.70;99.90;;;;;;5012364;28;20676;-67
2021/09/29 05:55:11;;;;;;;25.73;7.43;;;12.70;99.90;;;;;;5012269;28;20185;-66
2021/09/29 05:57:36;;;;;;;6.60;6.00;;;12.80;99.90;;;;;;5012070;28;20232;-66
2021/09/29 06:00:03;;;;;;;6.80;6.20;;;12.80;99.90;;;;;;5012110;28;20199;-67
2021/09/29 06:02:29;;;;;;;11.20;7.33;;;12.90;99.90;;;;;;5012278;28;20182;-66
2021/09/29 06:04:55;;;;;;;8.60;6.47;;;13.10;99.90;;;;;;5012355;28;20437;-67
2021/09/29 06:07:20;;;;;;;9.63;7.10;;;13.20;99.90;;;;;;5011963;28;20589;-66
2021/09/29 06:09:46;;;;;;;7.60;6.90;;;13.40;99.90;;;;;;5011425;28;20190;-66
2021/09/29 06:12:13;;;;;;;10.33;8.30;;;13.50;99.90;;;;;;5011839;28;20671;-66
2021/09/29 06:14:40;;;;;;;8.10;7.23;;;13.80;99.90;;;;;;5011578;28;20276;-66
2021/09/29 06:17:20;;;;;;;6.10;5.50;;;14.00;99.90;;;;;;5007636;28;20439;-66
2021/09/29 06:19:46;;;;;;;6.70;6.10;;;14.10;99.90;;;;;;5008770;28;20457;-66
2021/09/29 06:22:11;;;;;;;6.30;5.70;;;14.30;99.90;;;;;;5011474;28;20445;-67
2021/09/29 06:24:37;;;;;;;7.57;5.20;;;14.40;99.90;;;;;;5011465;28;20273;-67
2021/09/29 06:27:02;;;;;;;7.70;4.90;;;14.50;99.90;;;;;;5011549;28;20174;-66
2021/09/29 06:29:28;;;;;;;8.53;7.40;;;14.50;99.90;;;;;;5011577;28;20175;-67
2021/09/29 06:31:56;;;;;;;7.00;5.33;;;14.60;99.90;;;;;;5011579;28;20186;-66
2021/09/29 06:34:22;;;;;;;7.53;5.57;;;14.60;99.90;;;;;;5010124;28;20573;-67
2021/09/29 06:36:47;;;;;;;10.57;4.80;;;14.70;99.90;;;;;;5011456;28;20429;-66
2021/09/29 06:39:13;;;;;;;8.53;5.27;;;14.80;99.90;;;;;;5011515;28;20866;-67
2021/09/29 06:41:41;;;;;;;8.33;4.70;;;14.80;99.90;;;;;;5015216;28;20234;-67
2021/09/29 06:44:07;;;;;;;8.10;5.43;;;14.80;99.90;;;;;;5014683;28;20230;-66
2021/09/29 06:46:33;;;;;;;9.93;7.80;;;14.90;99.90;;;;;;5015429;28;20430;-66
2021/09/29 06:48:59;;;;;;;13.40;8.07;;;15.00;99.90;;;;;;5010346;28;20488;-66
2021/09/29 06:51:24;;;;;;;9.47;7.13;;;15.20;99.90;;;;;;5015349;28;20233;-66
2021/09/29 06:53:50;;;;;;;7.50;6.90;;;15.40;99.90;;;;;;5015196;28;20617;-66
2021/09/29 06:56:15;;;;;;;7.83;6.10;;;15.60;99.90;;;;;;5015006;28;20596;-66
2021/09/29 06:58:41;;;;;;;5.70;4.77;;;15.70;99.90;;;;;;5014752;28;20210;-66
2021/09/29 07:01:07;;;;;;;4.80;4.40;;;15.70;99.90;;;;;;5014744;28;20204;-66
2021/09/29 07:03:32;;;;;;;6.93;4.60;;;15.80;99.90;;;;;;5015223;28;20187;-66
2021/09/29 07:05:58;;;;;;;6.43;4.10;;;15.90;99.90;;;;;;5015135;28;20175;-66
2021/09/29 07:08:24;;;;;;;4.40;3.63;;;16.10;99.90;;;;;;5014990;28;20183;-65
2021/09/29 07:10:50;;;;;;;4.33;3.93;;;16.20;99.90;;;;;;5015047;28;20170;-66
2021/09/29 07:13:15;;;;;;;5.77;4.27;;;16.30;99.90;;;;;;5014833;28;20956;-65
2021/09/29 07:15:41;;;;;;;4.30;3.73;;;16.40;99.90;;;;;;5014837;28;20441;-66
2021/09/29 07:18:09;;;;;;;3.97;3.30;;;16.50;99.90;;;;;;5014655;28;20182;-65
2021/09/29 07:20:35;;;;;;;3.73;3.33;;;16.50;99.90;;;;;;5014829;28;20375;-66
2021/09/29 07:23:00;;;;;;;4.90;3.73;;;16.70;99.90;;;;;;5014650;28;20473;-66
2021/09/29 07:25:30;;;;;;;3.40;3.00;;;17.00;99.90;;;;;;5015022;28;20902;-66
2021/09/29 07:27:57;;;;;;;7.43;3.50;;;17.10;99.90;;;;;;5014521;28;20171;-66
2021/09/29 07:30:23;;;;;;;4.03;3.40;;;17.40;99.90;;;;;;5014866;28;20466;-66
2021/09/29 07:32:51;;;;;;;3.73;3.43;;;17.60;99.90;;;;;;5021106;28;20454;-66
2021/09/29 07:35:18;;;;;;;4.00;3.23;;;17.60;99.90;;;;;;5014813;28;20528;-66
2021/09/29 07:37:44;;;;;;;4.17;2.90;;;17.30;99.90;;;;;;5024550;28;20517;-66
2021/09/29 07:40:10;;;;;;;3.90;3.10;;;17.30;99.90;;;;;;5023885;28;20536;-66
2021/09/29 07:42:37;;;;;;;4.17;2.63;;;17.50;99.90;;;;;;5013928;28;20207;-66
2021/09/29 07:45:07;;;;;;;3.40;2.70;;;17.50;99.90;;;;;;5013442;28;20422;-66
2021/09/29 07:47:33;;;;;;;5.30;3.27;;;17.60;99.90;;;;;;5024747;28;20428;-66
2021/09/29 07:49:59;;;;;;;3.37;2.67;;;17.70;99.90;;;;;;5016827;28;20500;-66
2021/09/29 07:52:25;;;;;;;4.50;2.70;;;18.10;99.90;;;;;;5018350;28;20201;-66
2021/09/29 07:54:51;;;;;;;2.80;2.23;;;18.10;99.90;;;;;;5030692;28;20177;-66
2021/09/29 07:57:16;;;;;;;3.27;2.33;;;18.30;99.90;;;;;;5013915;28;20179;-66
2021/09/29 07:59:42;;;;;;;3.40;2.30;;;18.60;99.90;;;;;;5014059;28;20835;-66
2021/09/29 08:02:08;;;;;;;4.30;2.20;;;18.70;99.90;;;;;;5015997;28;20232;-66
2021/09/29 08:04:34;;;;;;;3.50;2.33;;;19.00;99.90;;;;;;5017952;28;20614;-66
2021/09/29 08:06:59;;;;;;;3.17;2.07;;;19.10;99.90;;;;;;5006844;28;20178;-66
2021/09/29 08:09:27;;;;;;;2.37;2.17;;;19.50;99.90;;;;;;5024120;28;20924;-66
2021/09/29 08:11:52;;;;;;;2.43;2.23;;;19.50;99.90;;;;;;5018672;28;20174;-66
2021/09/29 08:14:18;;;;;;;6.70;2.43;;;19.50;99.90;;;;;;5022942;28;20459;-66
2021/09/29 08:16:45;;;;;;;2.60;2.00;;;19.50;99.90;;;;;;5015954;28;20186;-66
2021/09/29 08:19:11;;;;;;;5.13;2.90;;;19.30;99.90;;;;;;5013272;28;20677;-65
2021/09/29 08:21:37;;;;;;;1.90;1.80;;;19.60;99.90;;;;;;5013641;28;20444;-65
2021/09/29 08:24:13;;;;;;;3.20;2.23;;;19.60;99.90;;;;;;5013529;28;20453;-65
2021/09/29 08:26:52;;;;;;;2.40;2.20;;;19.60;99.90;;;;;;5013714;28;20410;-65
2021/09/29 08:34:40;;;;;;;2.60;2.40;;;19.90;99.90;;;;;;5011979;28;20483;-65
2021/09/29 08:39:42;;;;;;;3.83;2.20;;;20.30;99.90;;;;;;5012752;28;20592;-62
2021/09/29 08:42:21;;;;;;;3.40;1.97;;;20.00;99.90;;;;;;5011982;28;20201;-62
2021/09/29 08:44:57;;;;;;;6.27;3.00;;;20.40;99.90;;;;;;5000578;28;20560;-63
2021/09/29 08:47:29;;;;;;;5.20;3.37;;;21.00;99.90;;;;;;5008171;28;20930;-65
2021/09/29 09:14:49;;;;;;;4.33;1.70;;;22.50;99.80;;;;;;5013346;28;20457;-64
2021/09/29 09:16:46;;;;;;;4.60;1.83;;;22.70;96.60;;;;;;5017121;28;20532;-63
2021/09/29 09:19:14;;;;;;;2.40;2.10;;;22.10;97.00;;;;;;5013194;28;20878;-64
2021/09/29 09:21:58;;;;;;;4.37;1.87;;;21.60;98.40;;;;;;5011077;28;20533;-64
2021/09/29 09:24:26;;;;;;;3.20;1.83;;;22.10;98.00;;;;;;5009394;28;20460;-64
2021/09/29 09:27:06;;;;;;;2.07;1.60;;;22.80;96.80;;;;;;5005826;28;20422;-63
2021/09/29 09:29:50;;;;;;;3.47;1.90;;;23.10;96.30;;;;;;5011746;28;20429;-63
2021/09/29 09:32:19;;;;;;;1.93;1.30;;;23.60;94.70;;;;;;5012375;28;20950;-62
2021/09/29 09:34:44;;;;;;;2.97;2.23;;;23.70;94.10;;;;;;5012125;28;20449;-65
2021/09/29 09:37:15;;;;;;;1.70;1.30;;;24.00;94.00;;;;;;5012290;28;20434;-64
2021/09/29 09:39:42;;;;;;;2.40;1.63;;;24.20;92.80;;;;;;5002952;28;20465;-64
2021/09/29 09:42:10;;;;;;;4.23;2.27;;;24.00;92.80;;;;;;4992970;28;20775;-65
2021/09/29 09:44:38;;;;;;;2.10;1.73;;;24.10;92.50;;;;;;5012400;28;20441;-65
2021/09/29 09:47:15;;;;;;;5.00;2.10;;;23.50;93.50;;;;;;5012453;28;20436;-65
2021/09/29 09:49:45;;;;;;;2.00;1.57;;;22.40;94.60;;;;;;5014199;28;20443;-64
2021/09/29 09:52:10;;;;;;;2.20;1.97;;;21.90;95.40;;;;;;5014702;28;20437;-63
2021/09/29 09:54:38;;;;;;;2.70;2.10;;;21.50;96.30;;;;;;5015463;28;20453;-64
2021/09/29 09:57:21;;;;;;;4.27;1.80;;;21.00;97.10;;;;;;5003792;28;20183;-65
2021/09/29 09:59:51;;;;;;;3.20;1.60;;;20.50;97.60;;;;;;5012279;28;20893;-65
2021/09/29 10:02:18;;;;;;;2.27;1.80;;;20.30;98.50;;;;;;5012441;28;20765;-63
2021/09/29 10:04:45;;;;;;;2.67;2.17;;;20.30;98.60;;;;;;5014028;28;20528;-63
2021/09/29 10:07:11;;;;;;;2.73;1.60;;;20.70;98.50;;;;;;5015958;28;20516;-63
2021/09/29 10:09:42;;;;;;;2.30;1.67;;;20.70;96.10;;;;;;5012551;28;20557;-63
2021/09/29 10:12:20;;;;;;;1.93;1.80;;;20.40;96.80;;;;;;5009742;28;20205;-64
2021/09/29 10:28:23;;;;;;;2.50;1.63;;;22.90;91.70;;;;;;5009609;28;20652;-64
2021/09/29 10:33:52;;;;;;;1.60;1.50;;;23.10;91.50;;;;;;4998699;28;20487;-65
2021/09/29 10:44:25;;;;;;;2.80;1.60;;;21.10;93.00;;;;;;5003091;28;20929;-65
2021/09/29 10:47:10;;;;;;;2.50;1.60;;;20.40;94.80;;;;;;5010882;28;20516;-64
2021/09/29 11:30:37;;;;;;;3.53;1.50;;;23.90;92.30;;;;;;5015120;28;20422;-63
2021/09/29 11:33:06;;;;;;;3.57;1.67;;;25.40;88.90;;;;;;5014838;28;20849;-64
2021/09/29 11:35:50;;;;;;;3.97;2.50;;;26.00;86.80;;;;;;5014664;28;20417;-64
2021/09/29 11:38:46;;;;;;;1.40;1.17;;;26.10;82.40;;;;;;5005068;28;20806;-62
2021/09/29 12:08:58;;;;;;;2.23;1.30;;;22.60;87.10;;;;;;5012834;28;20881;-64
2021/09/29 12:11:29;;;;;;;5.90;2.60;;;22.00;87.80;;;;;;5013704;28;20560;-64
2021/09/29 12:14:00;;;;;;;1.77;1.30;;;22.10;90.20;;;;;;5011325;28;20460;-63
2021/09/29 12:16:27;;;;;;;2.67;1.47;;;23.60;85.20;;;;;;5012642;28;20442;-64
2021/09/29 12:19:01;;;;;;;5.70;4.50;;;25.00;81.90;;;;;;5010221;28;20491;-65
2021/09/29 12:21:53;;;;;;;4.57;4.10;;;24.50;81.80;;;;;;5013851;28;20417;-64
2021/09/29 12:27:47;;;;;;;2.40;2.00;;;25.20;79.70;;;;;;5013251;28;20434;-64
2021/09/29 12:30:18;;;;;;;10.23;5.40;;;25.40;78.70;;;;;;5004023;28;20961;-63
2021/09/29 12:35:37;;;;;;;2.60;1.40;;;24.70;79.70;;;;;;5012137;28;20947;-64
2021/09/29 12:38:03;;;;;;;4.93;1.87;;;24.40;80.20;;;;;;5011795;28;20426;-64
2021/09/29 12:40:34;;;;;;;1.17;0.90;;;23.70;82.30;;;;;;5015427;28;20461;-64
2021/09/29 12:43:02;;;;;;;3.33;1.20;;;24.00;80.80;;;;;;4990117;28;20972;-65
2021/09/29 12:45:34;;;;;;;2.87;1.40;;;23.50;82.40;;;;;;4992711;28;20473;-64
2021/09/29 12:48:00;;;;;;;3.13;1.30;;;23.70;82.90;;;;;;5003400;28;20433;-65
2021/09/29 12:50:38;;;;;;;2.57;1.40;;;25.10;80.60;;;;;;5004768;28;20441;-64
2021/09/29 12:55:57;;;;;;;1.63;1.20;;;23.30;82.60;;;;;;4990976;28;20434;-65
2021/09/29 12:58:23;;;;;;;4.30;1.93;;;21.90;86.50;;;;;;5010067;28;20442;-65
2021/09/29 13:00:49;;;;;;;3.80;1.93;;;21.30;88.90;;;;;;5004850;28;20470;-63
2021/09/29 13:03:16;;;;;;;2.60;1.20;;;21.20;90.20;;;;;;5012494;28;20190;-65
2021/09/29 13:05:42;;;;;;;5.00;1.20;;;21.30;90.20;;;;;;5012914;28;20803;-63
2021/09/29 13:08:08;;;;;;;2.50;1.20;;;22.20;90.00;;;;;;5012704;28;20429;-64
2021/09/29 13:10:34;;;;;;;1.97;1.10;;;23.10;88.10;;;;;;5012996;28;20445;-65
2021/09/29 13:13:00;;;;;;;4.00;1.13;;;25.20;83.70;;;;;;5010271;28;20453;-65
2021/09/29 13:15:26;;;;;;;1.70;1.10;;;26.30;80.20;;;;;;5003050;28;20174;-65
2021/09/29 13:17:53;;;;;;;1.73;1.17;;;27.90;76.80;;;;;;5011308;28;20432;-66
2021/09/29 13:20:26;;;;;;;3.63;1.50;;;28.10;74.10;;;;;;5012846;28;20312;-65
2021/09/29 13:23:09;;;;;;;2.90;1.30;;;27.30;74.50;;;;;;5012950;28;20563;-65
2021/09/29 13:25:55;;;;;;;2.40;1.20;;;25.80;77.30;;;;;;5012356;28;20453;-64
2021/09/29 13:36:39;;;;;;;4.90;1.60;;;20.10;99.90;;;;;;5012825;28;20535;-64
2021/09/29 13:39:06;;;;;;;4.13;1.70;;;18.80;99.90;;;;;;5011997;28;20489;-64
2021/09/29 13:41:31;;;;;;;4.27;1.90;;;17.60;99.90;;;;;;5012255;28;20425;-66
2021/09/29 13:43:57;;;;;;;2.43;2.20;;;16.90;99.90;;;;;;5008600;28;20476;-65
2021/09/29 13:46:22;;;;;;;6.23;2.33;;;16.50;99.90;;;;;;5012006;28;20652;-65
2021/09/29 13:48:51;;;;;;;2.60;1.93;;;16.20;99.90;;;;;;5011767;28;20540;-65
2021/09/29 13:51:16;;;;;;;3.00;2.23;;;16.10;99.90;;;;;;5011794;28;20507;-65
2021/09/29 13:53:42;;;;;;;6.87;3.43;;;16.10;99.90;;;;;;5011756;28;20460;-65
2021/09/29 13:56:08;;;;;;;5.37;2.07;;;16.30;99.90;;;;;;5012130;28;20189;-65
2021/09/29 13:58:48;;;;;;;3.60;2.37;;;16.50;99.90;;;;;;5010961;28;20640;-65
2021/09/29 14:28:33;;;;;;;2.50;2.30;;;16.60;99.90;;;;;;4990111;28;20450;-66
2021/09/29 14:32:19;;;;;;;0.83;0.80;;;16.20;99.90;;;;;;5012314;28;20442;-65
2021/09/29 14:34:23;;;;;;;1.10;1.10;;;16.00;99.90;;;;;;5004838;28;20526;-65
2021/09/29 14:36:49;;;;;;;1.20;0.90;;;15.50;99.90;;;;;;5010931;28;20445;-65
2021/09/29 14:39:14;;;;;;;1.20;1.10;;;15.20;99.90;;;;;;5015472;28;20194;-65
2021/09/29 14:41:40;;;;;;;2.00;1.37;;;15.00;99.90;;;;;;5013071;28;20181;-65
2021/09/29 14:44:06;;;;;;;1.17;0.70;;;14.80;99.90;;;;;;5014343;28;20707;-65
2021/09/29 14:46:32;;;;;;;1.03;0.93;;;14.70;99.90;;;;;;5018763;28;20171;-65
2021/09/29 14:48:58;;;;;;;2.00;1.10;;;14.60;99.90;;;;;;5011156;28;20430;-65
2021/09/29 14:51:24;;;;;;;2.53;1.23;;;14.50;99.90;;;;;;5009654;28;20190;-66
2021/09/29 14:53:50;;;;;;;1.03;0.80;;;14.50;99.90;;;;;;4999769;28;20546;-66
2021/09/29 14:56:18;;;;;;;1.07;0.80;;;14.50;99.90;;;;;;5010487;28;20175;-66
2021/09/29 14:58:44;;;;;;;3.00;1.43;;;14.50;99.90;;;;;;5009880;28;20808;-65
2021/09/29 15:01:10;;;;;;;1.10;1.10;;;14.50;99.90;;;;;;5012431;28;20422;-64
2021/09/29 15:03:36;;;;;;;1.60;0.80;;;14.40;99.90;;;;;;5015121;28;20187;-65
2021/09/29 15:06:03;;;;;;;1.27;0.73;;;14.40;99.90;;;;;;5014828;28;20175;-65
2021/09/29 15:08:32;;;;;;;0.80;0.80;;;14.40;99.90;;;;;;5014930;28;20433;-65
2021/09/29 15:10:58;;;;;;;0.80;0.80;;;14.30;99.90;;;;;;5014840;28;20437;-65
2021/09/29 15:13:28;;;;;;;2.23;1.20;;;14.30;99.90;;;;;;5014618;28;20449;-65
2021/09/29 15:15:59;;;;;;;2.53;0.90;;;14.30;99.90;;;;;;5014563;28;20179;-66
2021/09/29 15:21:30;;;;;;;5.20;1.90;;;14.40;99.90;;;;;;5002693;28;20450;-65
2021/09/29 15:24:27;;;;;;;2.30;1.97;;;14.30;99.90;;;;;;5014697;28;20446;-65
2021/09/29 15:26:55;;;;;;;1.90;1.63;;;14.40;99.90;;;;;;5014533;28;20445;-65
2021/09/29 15:29:38;;;;;;;1.77;1.63;;;14.40;99.90;;;;;;5014577;28;20445;-65
2021/09/29 15:48:32;;;;;;;2.10;1.47;;;14.40;99.90;;;;;;5014397;28;20472;-65
2021/09/29 15:51:08;;;;;;;1.53;1.40;;;14.30;99.90;;;;;;5014531;28;20438;-66
2021/09/29 15:56:06;;;;;;;1.67;1.40;;;14.30;99.90;;;;;;5014190;28;21002;-65
2021/09/29 16:04:10;;;;;;;2.30;1.80;;;14.50;99.90;;;;;;5014085;28;20532;-66
2021/09/29 16:09:41;;;;;;;1.63;1.30;;;14.80;99.90;;;;;;5008350;28;20436;-65
2021/09/29 16:12:24;;;;;;;1.60;1.50;;;14.90;99.90;;;;;;5005422;28;20428;-66
2021/09/29 16:20:47;;;;;;;1.90;1.80;;;14.50;99.90;;;;;;5013770;28;20512;-66